sensor_id;sensor_type;location;lat;lon;timestamp;P1;durP1;ratioP1;P2;durP2;ratioP2
32032;SDS011;31720;52.638;9.216;2023-08-07T00:01:45;6.30;;;2.92;;
32032;SDS011;31720;52.638;9.216;2023-08-07T00:04:47;4.90;;;3.13;;
32032;SDS011;31720;52.638;9.216;2023-08-07T00:07:49;9.20;;;3.20;;
32032;SDS011;31720;52.638;9.216;2023-08-07T00:10:51;4.78;;;2.67;;
32032;SDS011;31720;52.638;9.216;2023-08-07T00:13:52;9.27;;;3.33;;
32032;SDS011;31720;52.638;9.216;2023-08-07T00:16:54;8.45;;;3.03;;
32032;SDS011;31720;52.638;9.216;2023-08-07T00:19:55;6.70;;;3.08;;
32032;SDS011;31720;52.638;9.216;2023-08-07T00:22:58;7.13;;;2.72;;
32032;SDS011;31720;52.638;9.216;2023-08-07T00:25:59;3.95;;;2.95;;
32032;SDS011;31720;52.638;9.216;2023-08-07T00:29:01;6.43;;;3.45;;
32032;SDS011;31720;52.638;9.216;2023-08-07T00:32:02;5.97;;;3.33;;
32032;SDS011;31720;52.638;9.216;2023-08-07T00:35:04;6.10;;;3.20;;
32032;SDS011;31720;52.638;9.216;2023-08-07T00:38:09;8.18;;;3.42;;
32032;SDS011;31720;52.638;9.216;2023-08-07T00:41:10;11.43;;;3.50;;
32032;SDS011;31720;52.638;9.216;2023-08-07T00:44:12;4.57;;;2.85;;
32032;SDS011;31720;52.638;9.216;2023-08-07T00:47:13;5.47;;;3.35;;
32032;SDS011;31720;52.638;9.216;2023-08-07T00:50:15;6.57;;;3.00;;
32032;SDS011;31720;52.638;9.216;2023-08-07T00:53:17;4.80;;;3.00;;
32032;SDS011;31720;52.638;9.216;2023-08-07T00:56:19;8.77;;;3.35;;
32032;SDS011;31720;52.638;9.216;2023-08-07T00:59:21;4.85;;;2.95;;
32032;SDS011;31720;52.638;9.216;2023-08-07T01:02:22;6.07;;;3.33;;
32032;SDS011;31720;52.638;9.216;2023-08-07T01:05:24;4.60;;;2.95;;
32032;SDS011;31720;52.638;9.216;2023-08-07T01:08:27;5.35;;;3.33;;
32032;SDS011;31720;52.638;9.216;2023-08-07T01:11:32;7.20;;;3.15;;
32032;SDS011;31720;52.638;9.216;2023-08-07T01:14:37;3.70;;;2.63;;
32032;SDS011;31720;52.638;9.216;2023-08-07T01:17:47;5.70;;;3.55;;
32032;SDS011;31720;52.638;9.216;2023-08-07T01:20:50;5.57;;;3.30;;
32032;SDS011;31720;52.638;9.216;2023-08-07T01:23:53;6.75;;;4.00;;
32032;SDS011;31720;52.638;9.216;2023-08-07T01:26:55;5.95;;;3.58;;
32032;SDS011;31720;52.638;9.216;2023-08-07T01:30:02;4.82;;;2.92;;
32032;SDS011;31720;52.638;9.216;2023-08-07T01:33:15;5.85;;;2.67;;
32032;SDS011;31720;52.638;9.216;2023-08-07T01:36:24;5.30;;;3.08;;
32032;SDS011;31720;52.638;9.216;2023-08-07T01:39:30;3.88;;;2.70;;
32032;SDS011;31720;52.638;9.216;2023-08-07T01:42:32;5.32;;;2.92;;
32032;SDS011;31720;52.638;9.216;2023-08-07T01:45:34;4.97;;;3.13;;
32032;SDS011;31720;52.638;9.216;2023-08-07T01:48:36;5.13;;;3.25;;
32032;SDS011;31720;52.638;9.216;2023-08-07T01:51:37;3.78;;;2.63;;
32032;SDS011;31720;52.638;9.216;2023-08-07T01:54:40;7.57;;;2.95;;
32032;SDS011;31720;52.638;9.216;2023-08-07T01:57:41;4.95;;;2.90;;
32032;SDS011;31720;52.638;9.216;2023-08-07T02:00:43;6.25;;;3.03;;
32032;SDS011;31720;52.638;9.216;2023-08-07T02:03:44;5.63;;;3.25;;
32032;SDS011;31720;52.638;9.216;2023-08-07T02:06:46;6.68;;;3.88;;
32032;SDS011;31720;52.638;9.216;2023-08-07T02:09:48;5.63;;;4.07;;
32032;SDS011;31720;52.638;9.216;2023-08-07T02:12:50;7.63;;;4.43;;
32032;SDS011;31720;52.638;9.216;2023-08-07T02:15:51;9.57;;;5.22;;
32032;SDS011;31720;52.638;9.216;2023-08-07T02:18:53;9.00;;;4.97;;
32032;SDS011;31720;52.638;9.216;2023-08-07T02:21:54;11.57;;;5.22;;
32032;SDS011;31720;52.638;9.216;2023-08-07T02:24:57;10.20;;;4.97;;
32032;SDS011;31720;52.638;9.216;2023-08-07T02:27:58;8.45;;;4.90;;
32032;SDS011;31720;52.638;9.216;2023-08-07T02:30:59;8.52;;;5.18;;
32032;SDS011;31720;52.638;9.216;2023-08-07T02:34:01;6.97;;;4.60;;
32032;SDS011;31720;52.638;9.216;2023-08-07T02:37:02;8.32;;;4.72;;
32032;SDS011;31720;52.638;9.216;2023-08-07T02:40:06;9.48;;;4.90;;
32032;SDS011;31720;52.638;9.216;2023-08-07T02:43:08;9.18;;;5.13;;
32032;SDS011;31720;52.638;9.216;2023-08-07T02:46:09;7.13;;;4.78;;
32032;SDS011;31720;52.638;9.216;2023-08-07T02:49:11;8.52;;;4.38;;
32032;SDS011;31720;52.638;9.216;2023-08-07T02:52:12;6.20;;;4.20;;
32032;SDS011;31720;52.638;9.216;2023-08-07T02:55:15;9.95;;;4.45;;
32032;SDS011;31720;52.638;9.216;2023-08-07T02:58:17;7.47;;;4.60;;
32032;SDS011;31720;52.638;9.216;2023-08-07T03:01:19;8.02;;;4.40;;
32032;SDS011;31720;52.638;9.216;2023-08-07T03:04:21;11.50;;;4.63;;
32032;SDS011;31720;52.638;9.216;2023-08-07T03:07:22;11.77;;;5.15;;
32032;SDS011;31720;52.638;9.216;2023-08-07T03:10:25;5.78;;;4.00;;
32032;SDS011;31720;52.638;9.216;2023-08-07T03:13:26;9.95;;;3.97;;
32032;SDS011;31720;52.638;9.216;2023-08-07T03:16:28;7.97;;;3.72;;
32032;SDS011;31720;52.638;9.216;2023-08-07T03:19:29;5.93;;;4.13;;
32032;SDS011;31720;52.638;9.216;2023-08-07T03:22:31;6.03;;;3.83;;
32032;SDS011;31720;52.638;9.216;2023-08-07T03:25:33;7.72;;;3.90;;
32032;SDS011;31720;52.638;9.216;2023-08-07T03:28:35;9.50;;;5.20;;
32032;SDS011;31720;52.638;9.216;2023-08-07T03:31:37;8.48;;;4.13;;
32032;SDS011;31720;52.638;9.216;2023-08-07T03:34:39;7.78;;;4.28;;
32032;SDS011;31720;52.638;9.216;2023-08-07T03:37:40;7.82;;;4.28;;
32032;SDS011;31720;52.638;9.216;2023-08-07T03:40:43;8.73;;;4.25;;
32032;SDS011;31720;52.638;9.216;2023-08-07T03:43:45;10.80;;;4.88;;
32032;SDS011;31720;52.638;9.216;2023-08-07T03:46:46;5.53;;;3.97;;
32032;SDS011;31720;52.638;9.216;2023-08-07T03:49:47;8.77;;;4.38;;
32032;SDS011;31720;52.638;9.216;2023-08-07T03:52:49;7.68;;;4.32;;
32032;SDS011;31720;52.638;9.216;2023-08-07T03:55:51;9.10;;;4.65;;
32032;SDS011;31720;52.638;9.216;2023-08-07T03:58:53;10.10;;;4.60;;
32032;SDS011;31720;52.638;9.216;2023-08-07T04:01:55;11.35;;;4.63;;
32032;SDS011;31720;52.638;9.216;2023-08-07T04:04:56;7.70;;;4.70;;
32032;SDS011;31720;52.638;9.216;2023-08-07T04:07:58;9.32;;;4.78;;
32032;SDS011;31720;52.638;9.216;2023-08-07T04:11:01;6.50;;;3.53;;
32032;SDS011;31720;52.638;9.216;2023-08-07T04:14:04;7.07;;;4.63;;
32032;SDS011;31720;52.638;9.216;2023-08-07T04:17:05;8.10;;;4.30;;
32032;SDS011;31720;52.638;9.216;2023-08-07T04:20:07;6.57;;;4.60;;
32032;SDS011;31720;52.638;9.216;2023-08-07T04:23:10;8.15;;;4.85;;
32032;SDS011;31720;52.638;9.216;2023-08-07T04:26:12;8.80;;;4.50;;
32032;SDS011;31720;52.638;9.216;2023-08-07T04:29:14;7.38;;;4.15;;
32032;SDS011;31720;52.638;9.216;2023-08-07T04:32:16;6.07;;;4.13;;
32032;SDS011;31720;52.638;9.216;2023-08-07T04:35:17;6.10;;;3.47;;
32032;SDS011;31720;52.638;9.216;2023-08-07T04:38:19;6.82;;;3.65;;
32032;SDS011;31720;52.638;9.216;2023-08-07T04:41:22;6.47;;;4.28;;
32032;SDS011;31720;52.638;9.216;2023-08-07T04:44:23;10.75;;;3.92;;
32032;SDS011;31720;52.638;9.216;2023-08-07T04:47:25;10.32;;;4.22;;
32032;SDS011;31720;52.638;9.216;2023-08-07T04:50:27;8.77;;;4.13;;
32032;SDS011;31720;52.638;9.216;2023-08-07T04:53:28;4.65;;;3.03;;
32032;SDS011;31720;52.638;9.216;2023-08-07T04:56:31;7.03;;;3.78;;
32032;SDS011;31720;52.638;9.216;2023-08-07T04:59:32;6.97;;;3.90;;
32032;SDS011;31720;52.638;9.216;2023-08-07T05:02:35;7.70;;;3.67;;
32032;SDS011;31720;52.638;9.216;2023-08-07T05:05:37;5.00;;;3.28;;
32032;SDS011;31720;52.638;9.216;2023-08-07T05:08:38;10.93;;;3.55;;
32032;SDS011;31720;52.638;9.216;2023-08-07T05:11:41;8.00;;;3.25;;
32032;SDS011;31720;52.638;9.216;2023-08-07T05:14:42;4.55;;;3.03;;
32032;SDS011;31720;52.638;9.216;2023-08-07T05:17:44;6.07;;;3.95;;
32032;SDS011;31720;52.638;9.216;2023-08-07T05:20:45;6.55;;;3.25;;
32032;SDS011;31720;52.638;9.216;2023-08-07T05:23:47;5.80;;;3.33;;
32032;SDS011;31720;52.638;9.216;2023-08-07T05:26:54;6.10;;;2.70;;
32032;SDS011;31720;52.638;9.216;2023-08-07T05:29:55;10.18;;;3.00;;
32032;SDS011;31720;52.638;9.216;2023-08-07T05:32:57;4.57;;;3.00;;
32032;SDS011;31720;52.638;9.216;2023-08-07T05:35:58;5.25;;;3.05;;
32032;SDS011;31720;52.638;9.216;2023-08-07T05:39:00;5.68;;;2.72;;
32032;SDS011;31720;52.638;9.216;2023-08-07T05:42:03;3.00;;;2.42;;
32032;SDS011;31720;52.638;9.216;2023-08-07T05:45:05;5.60;;;3.00;;
32032;SDS011;31720;52.638;9.216;2023-08-07T05:48:08;4.60;;;2.60;;
32032;SDS011;31720;52.638;9.216;2023-08-07T05:51:09;3.55;;;2.38;;
32032;SDS011;31720;52.638;9.216;2023-08-07T05:54:10;7.03;;;2.47;;
32032;SDS011;31720;52.638;9.216;2023-08-07T05:57:13;3.30;;;2.17;;
32032;SDS011;31720;52.638;9.216;2023-08-07T06:00:15;4.25;;;2.85;;
32032;SDS011;31720;52.638;9.216;2023-08-07T06:03:17;4.68;;;2.97;;
32032;SDS011;31720;52.638;9.216;2023-08-07T06:06:19;4.85;;;2.88;;
32032;SDS011;31720;52.638;9.216;2023-08-07T06:09:21;3.78;;;2.40;;
32032;SDS011;31720;52.638;9.216;2023-08-07T06:12:24;3.17;;;2.28;;
32032;SDS011;31720;52.638;9.216;2023-08-07T06:15:25;3.72;;;2.30;;
32032;SDS011;31720;52.638;9.216;2023-08-07T06:18:27;5.10;;;2.15;;
32032;SDS011;31720;52.638;9.216;2023-08-07T06:21:29;4.72;;;2.40;;
32032;SDS011;31720;52.638;9.216;2023-08-07T06:24:31;5.53;;;2.53;;
32032;SDS011;31720;52.638;9.216;2023-08-07T06:27:34;5.13;;;2.10;;
32032;SDS011;31720;52.638;9.216;2023-08-07T06:30:35;7.40;;;2.45;;
32032;SDS011;31720;52.638;9.216;2023-08-07T06:33:37;3.92;;;2.60;;
32032;SDS011;31720;52.638;9.216;2023-08-07T06:36:38;4.28;;;2.22;;
32032;SDS011;31720;52.638;9.216;2023-08-07T06:39:40;2.95;;;1.92;;
32032;SDS011;31720;52.638;9.216;2023-08-07T06:42:43;3.60;;;2.20;;
32032;SDS011;31720;52.638;9.216;2023-08-07T06:45:46;2.88;;;1.88;;
32032;SDS011;31720;52.638;9.216;2023-08-07T06:48:48;5.30;;;2.30;;
32032;SDS011;31720;52.638;9.216;2023-08-07T06:51:49;5.72;;;1.88;;
32032;SDS011;31720;52.638;9.216;2023-08-07T06:54:50;8.35;;;2.13;;
32032;SDS011;31720;52.638;9.216;2023-08-07T06:57:53;3.25;;;1.92;;
32032;SDS011;31720;52.638;9.216;2023-08-07T07:00:55;2.10;;;1.50;;
32032;SDS011;31720;52.638;9.216;2023-08-07T07:03:56;2.33;;;1.70;;
32032;SDS011;31720;52.638;9.216;2023-08-07T07:06:58;7.18;;;2.25;;
32032;SDS011;31720;52.638;9.216;2023-08-07T07:09:59;1.80;;;1.50;;
32032;SDS011;31720;52.638;9.216;2023-08-07T07:13:02;4.28;;;1.55;;
32032;SDS011;31720;52.638;9.216;2023-08-07T07:16:03;5.28;;;1.30;;
32032;SDS011;31720;52.638;9.216;2023-08-07T07:19:05;7.70;;;2.65;;
32032;SDS011;31720;52.638;9.216;2023-08-07T07:22:08;2.67;;;1.30;;
32032;SDS011;31720;52.638;9.216;2023-08-07T07:25:09;2.03;;;1.20;;
32032;SDS011;31720;52.638;9.216;2023-08-07T07:28:12;1.60;;;1.50;;
32032;SDS011;31720;52.638;9.216;2023-08-07T07:31:14;1.88;;;1.20;;
32032;SDS011;31720;52.638;9.216;2023-08-07T07:34:15;2.97;;;1.50;;
32032;SDS011;31720;52.638;9.216;2023-08-07T07:37:16;4.30;;;1.48;;
32032;SDS011;31720;52.638;9.216;2023-08-07T07:40:18;3.83;;;1.35;;
32032;SDS011;31720;52.638;9.216;2023-08-07T07:43:21;1.77;;;1.30;;
32032;SDS011;31720;52.638;9.216;2023-08-07T07:46:23;2.03;;;1.25;;
32032;SDS011;31720;52.638;9.216;2023-08-07T07:49:24;4.63;;;1.98;;
32032;SDS011;31720;52.638;9.216;2023-08-07T07:52:26;3.28;;;1.20;;
32032;SDS011;31720;52.638;9.216;2023-08-07T07:55:28;2.45;;;1.17;;
32032;SDS011;31720;52.638;9.216;2023-08-07T07:58:43;4.13;;;1.33;;
32032;SDS011;31720;52.638;9.216;2023-08-07T08:01:49;1.50;;;1.40;;
32032;SDS011;31720;52.638;9.216;2023-08-07T08:04:51;3.22;;;1.30;;
32032;SDS011;31720;52.638;9.216;2023-08-07T08:08:01;5.13;;;1.40;;
32032;SDS011;31720;52.638;9.216;2023-08-07T08:11:03;7.80;;;1.00;;
32032;SDS011;31720;52.638;9.216;2023-08-07T08:14:06;3.90;;;1.30;;
32032;SDS011;31720;52.638;9.216;2023-08-07T08:17:07;4.50;;;1.30;;
32032;SDS011;31720;52.638;9.216;2023-08-07T08:20:09;2.17;;;1.08;;
32032;SDS011;31720;52.638;9.216;2023-08-07T08:23:11;3.50;;;1.42;;
32032;SDS011;31720;52.638;9.216;2023-08-07T08:26:12;4.68;;;1.80;;
32032;SDS011;31720;52.638;9.216;2023-08-07T08:29:15;3.03;;;1.48;;
32032;SDS011;31720;52.638;9.216;2023-08-07T08:32:17;4.18;;;1.90;;
32032;SDS011;31720;52.638;9.216;2023-08-07T08:35:18;5.43;;;1.40;;
32032;SDS011;31720;52.638;9.216;2023-08-07T08:38:20;4.85;;;1.67;;
32032;SDS011;31720;52.638;9.216;2023-08-07T08:41:21;10.95;;;1.88;;
32032;SDS011;31720;52.638;9.216;2023-08-07T08:44:25;7.25;;;2.83;;
32032;SDS011;31720;52.638;9.216;2023-08-07T08:47:30;4.75;;;1.90;;
32032;SDS011;31720;52.638;9.216;2023-08-07T08:50:34;6.40;;;1.38;;
32032;SDS011;31720;52.638;9.216;2023-08-07T08:53:36;3.70;;;1.52;;
32032;SDS011;31720;52.638;9.216;2023-08-07T08:56:38;6.13;;;1.17;;
32032;SDS011;31720;52.638;9.216;2023-08-07T08:59:41;4.80;;;1.63;;
32032;SDS011;31720;52.638;9.216;2023-08-07T09:02:43;9.57;;;1.50;;
32032;SDS011;31720;52.638;9.216;2023-08-07T09:05:46;5.82;;;1.48;;
32032;SDS011;31720;52.638;9.216;2023-08-07T09:08:48;4.80;;;1.95;;
32032;SDS011;31720;52.638;9.216;2023-08-07T09:11:50;6.65;;;1.08;;
32032;SDS011;31720;52.638;9.216;2023-08-07T09:14:54;4.32;;;1.30;;
32032;SDS011;31720;52.638;9.216;2023-08-07T09:17:58;6.45;;;1.33;;
32032;SDS011;31720;52.638;9.216;2023-08-07T09:21:01;3.20;;;1.35;;
32032;SDS011;31720;52.638;9.216;2023-08-07T09:24:04;6.63;;;1.73;;
32032;SDS011;31720;52.638;9.216;2023-08-07T09:27:06;3.25;;;1.40;;
32032;SDS011;31720;52.638;9.216;2023-08-07T09:30:10;7.13;;;1.48;;
32032;SDS011;31720;52.638;9.216;2023-08-07T09:33:11;3.40;;;1.40;;
32032;SDS011;31720;52.638;9.216;2023-08-07T09:36:13;6.65;;;1.48;;
32032;SDS011;31720;52.638;9.216;2023-08-07T09:39:15;6.50;;;1.73;;
32032;SDS011;31720;52.638;9.216;2023-08-07T09:42:16;4.60;;;1.60;;
32032;SDS011;31720;52.638;9.216;2023-08-07T09:45:20;4.88;;;1.27;;
32032;SDS011;31720;52.638;9.216;2023-08-07T09:48:22;6.90;;;1.15;;
32032;SDS011;31720;52.638;9.216;2023-08-07T09:51:25;2.20;;;1.20;;
32032;SDS011;31720;52.638;9.216;2023-08-07T09:54:26;3.42;;;1.00;;
32032;SDS011;31720;52.638;9.216;2023-08-07T09:57:28;1.80;;;1.20;;
32032;SDS011;31720;52.638;9.216;2023-08-07T10:00:34;3.10;;;1.52;;
32032;SDS011;31720;52.638;9.216;2023-08-07T10:03:36;6.53;;;1.98;;
32032;SDS011;31720;52.638;9.216;2023-08-07T10:06:38;4.97;;;1.20;;
32032;SDS011;31720;52.638;9.216;2023-08-07T10:09:39;4.47;;;1.50;;
32032;SDS011;31720;52.638;9.216;2023-08-07T10:12:41;4.38;;;1.20;;
32032;SDS011;31720;52.638;9.216;2023-08-07T10:15:47;4.20;;;1.13;;
32032;SDS011;31720;52.638;9.216;2023-08-07T10:18:49;2.97;;;1.02;;
32032;SDS011;31720;52.638;9.216;2023-08-07T10:21:50;4.55;;;1.33;;
32032;SDS011;31720;52.638;9.216;2023-08-07T10:24:53;4.20;;;1.35;;
32032;SDS011;31720;52.638;9.216;2023-08-07T10:27:57;3.78;;;1.17;;
32032;SDS011;31720;52.638;9.216;2023-08-07T10:31:02;4.38;;;1.70;;
32032;SDS011;31720;52.638;9.216;2023-08-07T10:34:05;7.95;;;1.92;;
32032;SDS011;31720;52.638;9.216;2023-08-07T10:37:06;7.22;;;1.60;;
32032;SDS011;31720;52.638;9.216;2023-08-07T10:40:08;5.10;;;1.33;;
32032;SDS011;31720;52.638;9.216;2023-08-07T10:43:12;6.63;;;1.98;;
32032;SDS011;31720;52.638;9.216;2023-08-07T10:46:16;1.90;;;0.82;;
32032;SDS011;31720;52.638;9.216;2023-08-07T10:49:30;3.25;;;1.30;;
32032;SDS011;31720;52.638;9.216;2023-08-07T10:52:33;4.32;;;1.33;;
32032;SDS011;31720;52.638;9.216;2023-08-07T10:58:57;4.03;;;1.17;;
32032;SDS011;31720;52.638;9.216;2023-08-07T11:02:00;11.75;;;1.15;;
32032;SDS011;31720;52.638;9.216;2023-08-07T11:05:01;1.38;;;0.63;;
32032;SDS011;31720;52.638;9.216;2023-08-07T11:08:04;2.33;;;0.65;;
32032;SDS011;31720;52.638;9.216;2023-08-07T11:11:06;1.80;;;0.75;;
32032;SDS011;31720;52.638;9.216;2023-08-07T11:14:08;1.25;;;0.80;;
32032;SDS011;31720;52.638;9.216;2023-08-07T11:17:11;1.88;;;0.80;;
32032;SDS011;31720;52.638;9.216;2023-08-07T11:20:14;1.95;;;0.93;;
32032;SDS011;31720;52.638;9.216;2023-08-07T11:23:15;8.70;;;0.98;;
32032;SDS011;31720;52.638;9.216;2023-08-07T11:26:17;4.65;;;0.90;;
32032;SDS011;31720;52.638;9.216;2023-08-07T11:29:21;6.00;;;1.30;;
32032;SDS011;31720;52.638;9.216;2023-08-07T11:32:26;3.55;;;0.90;;
32032;SDS011;31720;52.638;9.216;2023-08-07T11:35:28;5.38;;;1.08;;
32032;SDS011;31720;52.638;9.216;2023-08-07T11:38:30;1.92;;;0.60;;
32032;SDS011;31720;52.638;9.216;2023-08-07T11:41:33;3.60;;;0.88;;
32032;SDS011;31720;52.638;9.216;2023-08-07T11:44:34;2.88;;;0.75;;
32032;SDS011;31720;52.638;9.216;2023-08-07T11:47:37;4.40;;;1.13;;
32032;SDS011;31720;52.638;9.216;2023-08-07T11:50:40;2.47;;;0.90;;
32032;SDS011;31720;52.638;9.216;2023-08-07T11:53:41;1.33;;;0.70;;
32032;SDS011;31720;52.638;9.216;2023-08-07T11:56:43;2.30;;;0.85;;
32032;SDS011;31720;52.638;9.216;2023-08-07T11:59:49;4.68;;;1.00;;
32032;SDS011;31720;52.638;9.216;2023-08-07T12:02:52;3.35;;;0.95;;
32032;SDS011;31720;52.638;9.216;2023-08-07T12:05:54;4.10;;;1.00;;
32032;SDS011;31720;52.638;9.216;2023-08-07T12:08:57;3.45;;;1.20;;
32032;SDS011;31720;52.638;9.216;2023-08-07T12:11:58;8.30;;;1.67;;
32032;SDS011;31720;52.638;9.216;2023-08-07T12:15:00;3.72;;;1.15;;
32032;SDS011;31720;52.638;9.216;2023-08-07T12:18:03;1.58;;;0.98;;
32032;SDS011;31720;52.638;9.216;2023-08-07T12:21:05;2.67;;;0.98;;
32032;SDS011;31720;52.638;9.216;2023-08-07T12:24:08;4.63;;;0.98;;
32032;SDS011;31720;52.638;9.216;2023-08-07T12:27:10;5.53;;;0.93;;
32032;SDS011;31720;52.638;9.216;2023-08-07T12:30:12;5.32;;;1.13;;
32032;SDS011;31720;52.638;9.216;2023-08-07T12:33:15;4.05;;;0.93;;
32032;SDS011;31720;52.638;9.216;2023-08-07T12:36:17;1.48;;;0.98;;
32032;SDS011;31720;52.638;9.216;2023-08-07T12:39:18;4.55;;;0.82;;
32032;SDS011;31720;52.638;9.216;2023-08-07T12:42:20;2.00;;;1.20;;
32032;SDS011;31720;52.638;9.216;2023-08-07T12:45:22;4.90;;;1.30;;
32032;SDS011;31720;52.638;9.216;2023-08-07T12:48:25;3.92;;;1.10;;
32032;SDS011;31720;52.638;9.216;2023-08-07T12:51:28;8.00;;;1.38;;
32032;SDS011;31720;52.638;9.216;2023-08-07T12:54:29;6.55;;;1.40;;
32032;SDS011;31720;52.638;9.216;2023-08-07T12:57:31;4.95;;;1.02;;
32032;SDS011;31720;52.638;9.216;2023-08-07T13:00:32;3.45;;;0.90;;
32032;SDS011;31720;52.638;9.216;2023-08-07T13:03:35;7.50;;;1.70;;
32032;SDS011;31720;52.638;9.216;2023-08-07T13:06:36;3.10;;;1.20;;
32032;SDS011;31720;52.638;9.216;2023-08-07T13:09:38;2.83;;;0.90;;
32032;SDS011;31720;52.638;9.216;2023-08-07T13:12:39;2.97;;;1.00;;
32032;SDS011;31720;52.638;9.216;2023-08-07T13:15:42;5.20;;;0.90;;
32032;SDS011;31720;52.638;9.216;2023-08-07T13:18:44;3.15;;;1.23;;
32032;SDS011;31720;52.638;9.216;2023-08-07T13:21:46;6.45;;;1.40;;
32032;SDS011;31720;52.638;9.216;2023-08-07T13:24:47;2.42;;;1.20;;
32032;SDS011;31720;52.638;9.216;2023-08-07T13:27:48;2.38;;;0.70;;
32032;SDS011;31720;52.638;9.216;2023-08-07T13:30:50;1.05;;;0.82;;
32032;SDS011;31720;52.638;9.216;2023-08-07T13:33:55;1.90;;;0.85;;
32032;SDS011;31720;52.638;9.216;2023-08-07T13:36:56;2.25;;;0.90;;
32032;SDS011;31720;52.638;9.216;2023-08-07T13:39:59;2.47;;;0.77;;
32032;SDS011;31720;52.638;9.216;2023-08-07T13:43:00;7.85;;;2.00;;
32032;SDS011;31720;52.638;9.216;2023-08-07T13:46:07;7.28;;;1.30;;
32032;SDS011;31720;52.638;9.216;2023-08-07T13:49:10;3.00;;;1.25;;
32032;SDS011;31720;52.638;9.216;2023-08-07T13:52:11;1.92;;;0.80;;
32032;SDS011;31720;52.638;9.216;2023-08-07T13:55:13;4.30;;;1.83;;
32032;SDS011;31720;52.638;9.216;2023-08-07T13:58:14;2.45;;;0.90;;
32032;SDS011;31720;52.638;9.216;2023-08-07T14:01:16;8.80;;;1.23;;
32032;SDS011;31720;52.638;9.216;2023-08-07T14:04:18;3.60;;;1.10;;
32032;SDS011;31720;52.638;9.216;2023-08-07T14:07:20;2.00;;;0.88;;
32032;SDS011;31720;52.638;9.216;2023-08-07T14:10:22;3.88;;;1.10;;
32032;SDS011;31720;52.638;9.216;2023-08-07T14:13:24;2.22;;;0.90;;
32032;SDS011;31720;52.638;9.216;2023-08-07T14:16:25;7.57;;;1.30;;
32032;SDS011;31720;52.638;9.216;2023-08-07T14:19:28;5.53;;;1.42;;
32032;SDS011;31720;52.638;9.216;2023-08-07T14:22:29;2.25;;;1.13;;
32032;SDS011;31720;52.638;9.216;2023-08-07T14:25:32;6.00;;;1.52;;
32032;SDS011;31720;52.638;9.216;2023-08-07T14:28:33;3.83;;;1.30;;
32032;SDS011;31720;52.638;9.216;2023-08-07T14:31:34;5.32;;;1.25;;
32032;SDS011;31720;52.638;9.216;2023-08-07T14:34:37;4.47;;;1.25;;
32032;SDS011;31720;52.638;9.216;2023-08-07T14:37:39;3.22;;;0.70;;
32032;SDS011;31720;52.638;9.216;2023-08-07T14:40:40;4.53;;;1.10;;
32032;SDS011;31720;52.638;9.216;2023-08-07T14:43:43;2.42;;;1.00;;
32032;SDS011;31720;52.638;9.216;2023-08-07T14:46:45;1.05;;;0.55;;
32032;SDS011;31720;52.638;9.216;2023-08-07T14:49:48;3.53;;;0.90;;
32032;SDS011;31720;52.638;9.216;2023-08-07T14:52:50;2.67;;;1.00;;
32032;SDS011;31720;52.638;9.216;2023-08-07T14:55:51;2.05;;;0.73;;
32032;SDS011;31720;52.638;9.216;2023-08-07T14:58:52;5.95;;;0.90;;
32032;SDS011;31720;52.638;9.216;2023-08-07T15:01:54;2.60;;;0.90;;
32032;SDS011;31720;52.638;9.216;2023-08-07T15:04:57;3.75;;;0.73;;
32032;SDS011;31720;52.638;9.216;2023-08-07T15:07:59;2.70;;;1.13;;
32032;SDS011;31720;52.638;9.216;2023-08-07T15:11:01;5.03;;;0.63;;
32032;SDS011;31720;52.638;9.216;2023-08-07T15:14:03;2.70;;;0.70;;
32032;SDS011;31720;52.638;9.216;2023-08-07T15:17:04;1.13;;;0.77;;
32032;SDS011;31720;52.638;9.216;2023-08-07T15:20:08;0.75;;;0.50;;
32032;SDS011;31720;52.638;9.216;2023-08-07T15:23:10;2.88;;;0.55;;
32032;SDS011;31720;52.638;9.216;2023-08-07T15:26:12;3.55;;;0.60;;
32032;SDS011;31720;52.638;9.216;2023-08-07T15:29:13;1.83;;;0.60;;
32032;SDS011;31720;52.638;9.216;2023-08-07T15:32:15;0.80;;;0.55;;
32032;SDS011;31720;52.638;9.216;2023-08-07T15:35:20;1.55;;;0.65;;
32032;SDS011;31720;52.638;9.216;2023-08-07T15:38:21;2.17;;;0.73;;
32032;SDS011;31720;52.638;9.216;2023-08-07T15:41:22;1.95;;;1.00;;
32032;SDS011;31720;52.638;9.216;2023-08-07T15:44:24;2.58;;;0.60;;
32032;SDS011;31720;52.638;9.216;2023-08-07T15:47:26;2.38;;;0.50;;
32032;SDS011;31720;52.638;9.216;2023-08-07T15:50:29;2.75;;;0.65;;
32032;SDS011;31720;52.638;9.216;2023-08-07T15:53:31;0.95;;;0.80;;
32032;SDS011;31720;52.638;9.216;2023-08-07T15:56:32;4.18;;;1.10;;
32032;SDS011;31720;52.638;9.216;2023-08-07T15:59:33;4.05;;;0.82;;
32032;SDS011;31720;52.638;9.216;2023-08-07T16:02:35;1.98;;;1.08;;
32032;SDS011;31720;52.638;9.216;2023-08-07T16:05:38;1.75;;;0.70;;
32032;SDS011;31720;52.638;9.216;2023-08-07T16:08:39;2.88;;;0.57;;
32032;SDS011;31720;52.638;9.216;2023-08-07T16:11:41;6.38;;;0.95;;
32032;SDS011;31720;52.638;9.216;2023-08-07T16:14:42;2.17;;;0.70;;
32032;SDS011;31720;52.638;9.216;2023-08-07T16:17:44;1.80;;;0.90;;
32032;SDS011;31720;52.638;9.216;2023-08-07T16:20:47;5.03;;;0.98;;
32032;SDS011;31720;52.638;9.216;2023-08-07T16:23:48;4.05;;;0.85;;
32032;SDS011;31720;52.638;9.216;2023-08-07T16:26:50;2.53;;;0.98;;
32032;SDS011;31720;52.638;9.216;2023-08-07T16:29:51;2.38;;;0.85;;
32032;SDS011;31720;52.638;9.216;2023-08-07T16:32:52;2.40;;;1.35;;
32032;SDS011;31720;52.638;9.216;2023-08-07T16:35:55;7.15;;;0.90;;
32032;SDS011;31720;52.638;9.216;2023-08-07T16:38:56;3.60;;;1.05;;
32032;SDS011;31720;52.638;9.216;2023-08-07T16:41:58;2.33;;;1.23;;
32032;SDS011;31720;52.638;9.216;2023-08-07T16:44:59;2.33;;;0.75;;
32032;SDS011;31720;52.638;9.216;2023-08-07T16:48:01;5.07;;;1.17;;
32032;SDS011;31720;52.638;9.216;2023-08-07T16:51:03;3.72;;;1.35;;
32032;SDS011;31720;52.638;9.216;2023-08-07T16:54:05;4.63;;;0.68;;
32032;SDS011;31720;52.638;9.216;2023-08-07T16:57:07;2.15;;;0.88;;
32032;SDS011;31720;52.638;9.216;2023-08-07T17:00:09;2.47;;;0.93;;
32032;SDS011;31720;52.638;9.216;2023-08-07T17:03:11;1.95;;;0.90;;
32032;SDS011;31720;52.638;9.216;2023-08-07T17:06:15;2.33;;;1.10;;
32032;SDS011;31720;52.638;9.216;2023-08-07T17:09:17;5.72;;;0.93;;
32032;SDS011;31720;52.638;9.216;2023-08-07T17:12:19;5.53;;;1.40;;
32032;SDS011;31720;52.638;9.216;2023-08-07T17:15:21;5.53;;;1.40;;
32032;SDS011;31720;52.638;9.216;2023-08-07T17:18:22;2.45;;;0.95;;
32032;SDS011;31720;52.638;9.216;2023-08-07T17:21:25;2.45;;;1.23;;
32032;SDS011;31720;52.638;9.216;2023-08-07T17:24:26;4.45;;;1.13;;
32032;SDS011;31720;52.638;9.216;2023-08-07T17:27:28;2.83;;;1.40;;
32032;SDS011;31720;52.638;9.216;2023-08-07T17:30:29;4.10;;;1.25;;
32032;SDS011;31720;52.638;9.216;2023-08-07T17:33:31;3.53;;;1.27;;
32032;SDS011;31720;52.638;9.216;2023-08-07T17:36:34;3.33;;;1.13;;
32032;SDS011;31720;52.638;9.216;2023-08-07T17:39:36;4.78;;;1.45;;
32032;SDS011;31720;52.638;9.216;2023-08-07T17:42:37;5.05;;;1.25;;
32032;SDS011;31720;52.638;9.216;2023-08-07T17:45:39;6.82;;;1.20;;
32032;SDS011;31720;52.638;9.216;2023-08-07T17:48:40;2.92;;;1.33;;
32032;SDS011;31720;52.638;9.216;2023-08-07T17:51:45;4.60;;;1.20;;
32032;SDS011;31720;52.638;9.216;2023-08-07T17:54:47;2.33;;;1.15;;
32032;SDS011;31720;52.638;9.216;2023-08-07T17:57:50;4.85;;;1.05;;
32032;SDS011;31720;52.638;9.216;2023-08-07T18:00:52;4.72;;;1.05;;
32032;SDS011;31720;52.638;9.216;2023-08-07T18:03:53;4.63;;;0.90;;
32032;SDS011;31720;52.638;9.216;2023-08-07T18:07:00;4.10;;;1.30;;
32032;SDS011;31720;52.638;9.216;2023-08-07T18:10:02;3.50;;;1.02;;
32032;SDS011;31720;52.638;9.216;2023-08-07T18:13:04;4.93;;;1.35;;
32032;SDS011;31720;52.638;9.216;2023-08-07T18:16:06;2.15;;;1.30;;
32032;SDS011;31720;52.638;9.216;2023-08-07T18:19:07;2.63;;;1.40;;
32032;SDS011;31720;52.638;9.216;2023-08-07T18:22:10;6.85;;;1.33;;